createdAt,value
2022-08-05T00:00:54.752Z,57.04
2022-08-05T00:03:21.201Z,57.46
2022-08-05T00:06:04.886Z,57.41
2022-08-05T00:08:36.138Z,57.42
2022-08-05T00:11:02.840Z,57.62
2022-08-05T00:13:38.072Z,57.58
2022-08-05T00:16:06.255Z,57.01
2022-08-05T00:18:35.287Z,57.13
2022-08-05T00:21:01.737Z,57.12
2022-08-05T00:23:44.276Z,57.27
2022-08-05T00:26:13.504Z,56.94
2022-08-05T00:28:42.665Z,57.09
2022-08-05T00:31:12.146Z,57.12
2022-08-05T00:34:54.361Z,57.29
2022-08-05T00:37:11.268Z,57.01
2022-08-05T00:39:13.550Z,56.89
2022-08-05T00:41:55.655Z,57.10
2022-08-05T00:44:23.300Z,57.12
2022-08-05T00:47:04.237Z,57.10
2022-08-05T00:49:44.766Z,57.54
2022-08-05T00:52:18.993Z,57.45
2022-08-05T00:54:55.179Z,57.02
2022-08-05T00:57:23.030Z,57.56
2022-08-05T00:59:51.887Z,57.16
2022-08-05T01:02:18.168Z,57.05
2022-08-05T01:04:44.552Z,57.25
2022-08-05T01:07:17.954Z,57.18
2022-08-05T01:09:55.576Z,57.04
2022-08-05T01:12:22.291Z,57.39
2022-08-05T01:14:48.767Z,57.29
2022-08-05T01:17:15.315Z,57.03
2022-08-05T01:20:00.695Z,57.33
2022-08-05T01:22:28.464Z,57.15
2022-08-05T01:24:54.797Z,57.43
2022-08-05T01:27:22.128Z,57.25
2022-08-05T01:29:49.720Z,57.11
2022-08-05T01:32:18.620Z,56.94
2022-08-05T01:34:45.271Z,56.90
2022-08-05T01:37:18.105Z,57.24
2022-08-05T01:39:51.806Z,57.44
2022-08-05T01:42:20.610Z,57.33
2022-08-05T01:44:54.172Z,57.32
2022-08-05T01:47:21.278Z,57.08
2022-08-05T01:50:01.426Z,56.98
2022-08-05T01:52:28.941Z,56.97
2022-08-05T01:54:56.720Z,57.31
2022-08-05T01:58:29.710Z,57.31
2022-08-05T02:00:12.119Z,57.44
2022-08-05T02:02:38.778Z,57.07
2022-08-05T02:05:18.979Z,56.74
2022-08-05T02:07:59.942Z,57.12
2022-08-05T02:10:28.689Z,56.83
2022-08-05T02:12:55.154Z,56.96
2022-08-05T02:15:21.504Z,56.70
2022-08-05T02:18:32.402Z,57.14
2022-08-05T02:20:39.130Z,56.75
2022-08-05T02:23:05.633Z,57.01
2022-08-05T02:25:49.202Z,56.82
2022-08-05T02:28:16.902Z,56.35
2022-08-05T02:30:56.711Z,56.76
2022-08-05T02:33:24.173Z,56.71
2022-08-05T02:35:57.543Z,57.07
2022-08-05T02:38:27.094Z,56.82
2022-08-05T02:41:14.631Z,56.74
2022-08-05T02:44:02.405Z,56.26
2022-08-05T02:46:30.690Z,56.40
2022-08-05T02:48:57.076Z,56.60
2022-08-05T02:51:28.237Z,56.38
2022-08-05T02:54:09.954Z,56.53
2022-08-05T02:56:56.282Z,56.48
2022-08-05T02:59:26.925Z,56.54
2022-08-05T03:01:54.120Z,56.44
2022-08-05T03:04:20.725Z,56.24
2022-08-05T03:06:55.040Z,56.43
2022-08-05T03:09:27.237Z,56.43
2022-08-05T03:12:03.036Z,56.65
2022-08-05T03:14:29.368Z,56.71
2022-08-05T03:16:57.086Z,56.43
2022-08-05T03:19:33.105Z,56.49
2022-08-05T03:22:01.154Z,56.39
2022-08-05T03:24:30.070Z,56.10
2022-08-05T03:26:56.997Z,56.52
2022-08-05T03:29:23.719Z,56.09
2022-08-05T03:31:56.734Z,55.94
2022-08-05T03:34:26.822Z,56.38
2022-08-05T03:36:53.656Z,56.18
2022-08-05T03:39:27.074Z,56.13
2022-08-05T03:41:56.308Z,56.03
2022-08-05T03:44:22.974Z,56.27
2022-08-05T03:46:49.379Z,55.96
2022-08-05T03:49:15.738Z,56.51
2022-08-05T03:52:48.289Z,56.05
2022-08-05T03:55:34.325Z,56.38
2022-08-05T03:57:16.865Z,56.58
2022-08-05T03:59:46.504Z,56.10
2022-08-05T04:02:14.998Z,55.81
2022-08-05T04:04:44.889Z,56.39
2022-08-05T04:07:11.277Z,56.10
2022-08-05T04:09:39.774Z,56.03
2022-08-05T04:12:24.613Z,56.02
2022-08-05T04:14:52.599Z,56.26
2022-08-05T04:17:18.963Z,56.38
2022-08-05T04:19:45.626Z,56.60
2022-08-05T04:22:21.270Z,56.46
2022-08-05T04:24:52.667Z,56.57
2022-08-05T04:27:19.242Z,56.43
2022-08-05T04:29:45.597Z,56.38
2022-08-05T04:32:14.804Z,56.34
2022-08-05T04:34:46.467Z,56.21
2022-08-05T04:37:12.966Z,56.41
2022-08-05T04:39:40.029Z,56.74
2022-08-05T04:42:06.613Z,56.44
2022-08-05T04:44:33.082Z,56.39
2022-08-05T04:46:59.571Z,56.69
2022-08-05T04:49:38.689Z,56.35
2022-08-05T04:52:12.234Z,56.41
2022-08-05T04:54:38.605Z,57.00
2022-08-05T04:57:04.958Z,57.07
2022-08-05T04:59:38.767Z,57.03
2022-08-05T05:02:37.739Z,57.05
2022-08-05T05:04:52.159Z,57.02
2022-08-05T05:07:18.520Z,56.62
2022-08-05T05:09:56.632Z,56.25
2022-08-05T05:12:23.443Z,56.82
2022-08-05T05:14:53.967Z,56.42
2022-08-05T05:17:24.186Z,56.69
2022-08-05T05:19:51.287Z,56.37
2022-08-05T05:22:23.943Z,56.72
2022-08-05T05:24:57.713Z,56.81
2022-08-05T05:27:41.263Z,56.29
2022-08-05T05:30:15.610Z,56.52
2022-08-05T05:32:56.296Z,56.60
2022-08-05T05:35:22.798Z,56.91
2022-08-05T05:37:59.857Z,56.93
2022-08-05T05:40:28.112Z,56.92
2022-08-05T05:42:54.993Z,56.85
2022-08-05T05:45:22.864Z,57.02
2022-08-05T05:48:06.210Z,56.63
2022-08-05T05:50:33.653Z,56.98
2022-08-05T05:53:00.541Z,56.88
2022-08-05T05:55:51.744Z,57.03
2022-08-05T05:58:13.375Z,56.83
2022-08-05T06:00:40.853Z,56.91
2022-08-05T06:03:39.886Z,56.84
2022-08-05T06:05:58.750Z,57.30
2022-08-05T06:08:31.556Z,56.87
2022-08-05T06:10:59.260Z,56.71
2022-08-05T06:13:26.682Z,56.90
2022-08-05T06:16:28.432Z,56.80
2022-08-05T06:18:39.563Z,56.93
2022-08-05T06:21:16.498Z,56.96
2022-08-05T06:23:44.073Z,56.68
2022-08-05T06:26:20.706Z,56.75
2022-08-05T06:28:48.307Z,56.66
2022-08-05T06:31:18.279Z,56.99
2022-08-05T06:34:06.912Z,56.59
2022-08-05T06:36:55.339Z,57.01
2022-08-05T06:39:21.847Z,56.77
2022-08-05T06:41:50.870Z,56.87
2022-08-05T06:44:18.608Z,57.07
2022-08-05T06:46:50.755Z,57.08
2022-08-05T06:49:17.478Z,56.69
2022-08-05T06:51:45.188Z,56.81
2022-08-05T06:54:18.075Z,56.91
2022-08-05T06:56:54.494Z,56.88
2022-08-05T06:59:21.743Z,56.89
2022-08-05T07:01:52.786Z,56.89
2022-08-05T07:04:19.568Z,56.93
2022-08-05T07:06:46.181Z,57.28
2022-08-05T07:09:16.822Z,56.92
2022-08-05T07:11:51.407Z,57.19
2022-08-05T07:14:29.084Z,56.95
2022-08-05T07:18:08.749Z,57.22
2022-08-05T07:20:31.277Z,56.80
2022-08-05T07:22:30.377Z,57.20
2022-08-05T07:24:56.935Z,57.29
2022-08-05T07:27:23.461Z,56.96
2022-08-05T07:30:23.945Z,57.04
2022-08-05T07:32:40.557Z,57.29
2022-08-05T07:36:02.114Z,57.13
2022-08-05T07:37:54.051Z,57.50
2022-08-05T07:40:32.504Z,57.02
2022-08-05T07:42:59.845Z,57.05
2022-08-05T07:45:56.287Z,57.11
2022-08-05T07:48:36.600Z,57.36
2022-08-05T07:51:04.253Z,56.91
2022-08-05T07:53:50.557Z,57.00
2022-08-05T07:56:59.832Z,57.46
2022-08-05T07:59:04.672Z,57.32
2022-08-05T08:01:35.003Z,56.94
2022-08-05T08:04:03.156Z,57.27
2022-08-05T08:06:30.599Z,57.30
2022-08-05T08:08:56.992Z,57.42
2022-08-05T08:11:27.472Z,57.45
2022-08-05T08:14:03.655Z,57.21
2022-08-05T08:16:35.676Z,56.94
2022-08-05T08:20:10.394Z,57.38
2022-08-05T08:22:03.029Z,57.21
2022-08-05T08:24:46.036Z,57.05
2022-08-05T08:27:17.210Z,57.27
2022-08-05T08:30:04.102Z,57.22
2022-08-05T08:32:30.073Z,57.48
2022-08-05T08:34:58.340Z,57.49
2022-08-05T08:37:27.911Z,57.27
2022-08-05T08:39:54.657Z,57.61
2022-08-05T08:42:32.584Z,57.46
2022-08-05T08:45:23.974Z,57.11
2022-08-05T08:48:06.848Z,57.53
2022-08-05T08:51:22.405Z,57.09
2022-08-05T08:53:26.178Z,57.43
2022-08-05T08:56:04.788Z,57.69
2022-08-05T08:58:37.165Z,57.54
2022-08-05T09:01:10.995Z,57.55
2022-08-05T09:03:45.399Z,57.27
2022-08-05T09:06:16.951Z,57.28
2022-08-05T09:08:46.548Z,57.63
2022-08-05T09:11:13.906Z,57.31
2022-08-05T09:14:01.039Z,57.75
2022-08-05T09:16:26.835Z,57.25
2022-08-05T09:18:53.334Z,57.43
2022-08-05T09:22:22.776Z,57.55
2022-08-05T09:24:08.272Z,57.69
2022-08-05T09:26:36.724Z,57.70
2022-08-05T09:29:03.253Z,57.36
2022-08-05T09:32:41.032Z,57.25
2022-08-05T09:34:16.057Z,57.72
2022-08-05T09:36:45.781Z,57.47
2022-08-05T09:39:22.964Z,57.87
2022-08-05T09:41:53.888Z,57.24
2022-08-05T09:44:22.793Z,57.46
2022-08-05T09:46:51.858Z,57.28
2022-08-05T09:49:20.197Z,57.82
2022-08-05T09:51:49.002Z,57.47
2022-08-05T09:54:16.488Z,57.76
2022-08-05T09:56:55.390Z,57.88
2022-08-05T09:59:24.076Z,57.55
2022-08-05T10:01:57.715Z,57.53
2022-08-05T10:04:29.191Z,57.44
2022-08-05T10:06:59.064Z,57.85
2022-08-05T10:09:28.438Z,57.35
2022-08-05T10:11:56.399Z,57.56
2022-08-05T10:14:24.977Z,57.89
2022-08-05T10:16:54.473Z,57.73
2022-08-05T10:19:23.862Z,57.57
2022-08-05T10:21:58.455Z,57.73
2022-08-05T10:24:25.019Z,57.91
2022-08-05T10:26:53.938Z,57.95
2022-08-05T10:29:23.842Z,57.41
2022-08-05T10:32:53.684Z,57.47
2022-08-05T10:34:53.759Z,57.67
2022-08-05T10:37:20.130Z,57.83
2022-08-05T10:40:03.585Z,58.13
2022-08-05T10:42:34.614Z,57.74
2022-08-05T10:45:01.283Z,57.95
2022-08-05T10:47:31.403Z,58.30
2022-08-05T10:50:31.776Z,58.17
2022-08-05T10:52:49.511Z,58.35
2022-08-05T10:55:18.519Z,58.22
2022-08-05T10:57:45.007Z,57.89
2022-08-05T11:00:18.483Z,57.92
2022-08-05T11:02:50.628Z,58.08
2022-08-05T11:05:18.347Z,57.84
2022-08-05T11:08:01.750Z,58.54
2022-08-05T11:10:32.715Z,58.32
2022-08-05T11:12:59.081Z,57.89
2022-08-05T11:16:00.192Z,58.01
2022-08-05T11:18:15.780Z,58.00
2022-08-05T11:20:44.160Z,58.45
2022-08-05T11:23:10.688Z,58.43
2022-08-05T11:26:04.616Z,58.12
2022-08-05T11:28:23.563Z,58.22
2022-08-05T11:30:53.376Z,58.44
2022-08-05T11:33:21.331Z,58.15
2022-08-05T11:36:04.495Z,58.31
2022-08-05T11:38:37.294Z,58.49
2022-08-05T11:41:35.408Z,58.58
2022-08-05T11:44:04.491Z,58.24
2022-08-05T11:46:34.979Z,58.17
2022-08-05T11:49:01.386Z,58.14
2022-08-05T11:51:44.667Z,58.42
2022-08-05T11:54:14.298Z,58.66
2022-08-05T11:56:41.344Z,58.37
2022-08-05T11:59:13.742Z,58.57
2022-08-05T12:01:40.369Z,58.44
2022-08-05T12:04:06.695Z,58.28
2022-08-05T12:06:33.566Z,58.48
2022-08-05T12:09:01.185Z,58.55
2022-08-05T12:11:39.742Z,58.01
2022-08-05T12:14:07.581Z,58.26
2022-08-05T12:16:34.230Z,58.17
2022-08-05T12:19:04.991Z,58.38
2022-08-05T12:21:39.192Z,58.34
2022-08-05T12:24:07.841Z,58.70
2022-08-05T12:26:34.250Z,58.57
2022-08-05T12:29:01.469Z,58.27
2022-08-05T12:31:33.045Z,58.24
2022-08-05T12:34:10.028Z,58.23
2022-08-05T12:36:50.666Z,58.77
2022-08-05T12:39:17.124Z,58.30
2022-08-05T12:41:44.058Z,58.34
2022-08-05T12:44:11.637Z,58.29
2022-08-05T12:46:41.025Z,58.69
2022-08-05T12:49:12.040Z,58.39
2022-08-05T12:52:13.081Z,58.30
2022-08-05T12:54:30.710Z,58.31
2022-08-05T12:57:01.727Z,58.34
2022-08-05T13:00:08.863Z,58.76
2022-08-05T13:02:17.040Z,58.54
2022-08-05T13:04:52.536Z,59.01
2022-08-05T13:07:41.420Z,58.93
2022-08-05T13:10:08.359Z,60.19
2022-08-05T13:12:36.155Z,60.53
2022-08-05T13:15:24.005Z,62.92
2022-08-05T13:17:50.957Z,63.20
2022-08-05T13:20:21.694Z,65.63
2022-08-05T13:22:54.559Z,64.37
2022-08-05T13:25:21.923Z,65.75
2022-08-05T13:27:50.202Z,66.03
2022-08-05T13:30:33.803Z,66.37
2022-08-05T13:33:03.122Z,67.67
2022-08-05T13:35:42.967Z,67.68
2022-08-05T13:38:28.182Z,67.65
2022-08-05T13:40:57.949Z,67.59
2022-08-05T13:43:24.700Z,68.27
2022-08-05T13:46:13.434Z,67.88
2022-08-05T13:48:57.090Z,68.62
2022-08-05T13:51:25.767Z,68.58
2022-08-05T13:53:56.556Z,68.68
2022-08-05T13:56:25.532Z,67.63
2022-08-05T13:58:53.320Z,67.42
2022-08-05T14:01:22.003Z,67.27
2022-08-05T14:03:53.969Z,67.39
2022-08-05T14:06:26.349Z,67.11
2022-08-05T14:08:53.411Z,67.40
2022-08-05T14:11:22.084Z,66.87
2022-08-05T14:13:48.633Z,66.76
2022-08-05T14:16:21.412Z,66.18
2022-08-05T14:18:47.793Z,65.72
2022-08-05T14:22:10.321Z,66.25
2022-08-05T14:24:02.271Z,65.40
2022-08-05T14:26:35.616Z,65.36
2022-08-05T14:29:05.354Z,65.31
2022-08-05T14:32:03.085Z,65.08
2022-08-05T14:34:29.301Z,65.03
2022-08-05T14:37:02.067Z,64.55
2022-08-05T14:39:28.494Z,64.91
2022-08-05T14:42:19.572Z,64.48
2022-08-05T14:44:42.080Z,64.34
2022-08-05T14:47:08.859Z,64.28
2022-08-05T14:49:56.319Z,64.31
2022-08-05T14:52:42.876Z,64.43
2022-08-05T14:55:08.075Z,64.55
2022-08-05T14:57:54.850Z,64.57
2022-08-05T15:00:27.923Z,64.69
2022-08-05T15:02:55.054Z,64.13
2022-08-05T15:05:21.632Z,64.17
2022-08-05T15:08:05.737Z,64.47
2022-08-05T15:10:39.129Z,64.08
2022-08-05T15:13:05.890Z,64.34
2022-08-05T15:15:54.382Z,63.98
2022-08-05T15:18:23.255Z,64.49
2022-08-05T15:20:51.227Z,64.32
2022-08-05T15:23:17.566Z,63.87
2022-08-05T15:25:51.966Z,64.06
2022-08-05T15:28:24.430Z,63.85
2022-08-05T15:30:54.244Z,63.07
2022-08-05T15:34:05.247Z,63.26
2022-08-05T15:36:16.653Z,62.97
2022-08-05T15:38:44.537Z,63.05
2022-08-05T15:41:22.732Z,62.42
2022-08-05T15:43:50.995Z,61.71
2022-08-05T15:46:17.414Z,61.94
2022-08-05T15:48:54.732Z,63.04
2022-08-05T15:52:10.017Z,61.92
2022-08-05T15:54:15.251Z,61.44
2022-08-05T15:56:42.153Z,61.60
2022-08-05T15:59:09.990Z,61.99
2022-08-05T16:01:52.741Z,62.12
2022-08-05T16:04:20.713Z,61.69
2022-08-05T16:06:55.808Z,61.80
2022-08-05T16:09:23.095Z,61.31
2022-08-05T16:11:53.046Z,61.35
2022-08-05T16:14:20.081Z,61.29
2022-08-05T16:16:46.497Z,60.82
2022-08-05T16:19:25.580Z,60.84
2022-08-05T16:22:02.641Z,60.60
2022-08-05T16:24:41.519Z,60.81
2022-08-05T16:27:16.503Z,60.52
2022-08-05T16:29:51.054Z,60.82
2022-08-05T16:32:17.615Z,60.84
2022-08-05T16:34:54.807Z,60.74
2022-08-05T16:38:13.656Z,60.85
2022-08-05T16:40:24.923Z,61.16
2022-08-05T16:42:55.349Z,60.91
2022-08-05T16:46:05.379Z,60.74
2022-08-05T16:48:07.983Z,61.00
2022-08-05T16:50:36.905Z,61.22
2022-08-05T16:53:12.133Z,60.87
2022-08-05T16:55:48.645Z,60.88
2022-08-05T16:58:14.975Z,61.26
2022-08-05T17:00:46.824Z,60.92
2022-08-05T17:03:19.641Z,61.19
2022-08-05T17:05:50.213Z,61.19
2022-08-05T17:08:36.057Z,61.03
2022-08-05T17:11:06.242Z,60.65
2022-08-05T17:13:37.369Z,61.07
2022-08-05T17:16:28.012Z,60.70
2022-08-05T17:18:52.075Z,60.97
2022-08-05T17:21:18.407Z,60.97
2022-08-05T17:24:04.916Z,60.95
2022-08-05T17:26:32.273Z,60.84
2022-08-05T17:28:59.611Z,61.16
2022-08-05T17:31:56.536Z,61.39
2022-08-05T17:34:18.275Z,60.92
2022-08-05T17:36:44.596Z,61.36
2022-08-05T17:39:23.860Z,60.88
2022-08-05T17:42:17.498Z,61.53
2022-08-05T17:44:43.134Z,60.98
2022-08-05T17:47:17.625Z,60.98
2022-08-05T17:50:00.333Z,61.35
2022-08-05T17:52:30.958Z,61.28
2022-08-05T17:54:57.589Z,61.03
2022-08-05T17:57:24.558Z,61.28
2022-08-05T18:00:04.828Z,61.07
2022-08-05T18:02:32.137Z,61.31
2022-08-05T18:04:58.572Z,61.62
2022-08-05T18:07:25.268Z,62.12
2022-08-05T18:10:06.524Z,61.59
2022-08-05T18:12:37.446Z,61.80
2022-08-05T18:15:03.949Z,62.44
2022-08-05T18:18:00.596Z,62.68
2022-08-05T18:20:17.453Z,62.23
2022-08-05T18:22:54.064Z,62.93
2022-08-05T18:25:21.283Z,63.04
2022-08-05T18:27:52.370Z,62.60
2022-08-05T18:30:19.363Z,63.11
2022-08-05T18:32:53.084Z,62.92
2022-08-05T18:35:49.759Z,63.20
2022-08-05T18:38:12.909Z,63.09
2022-08-05T18:41:53.739Z,62.80
2022-08-05T18:43:31.577Z,62.71
2022-08-05T18:46:04.697Z,62.99
2022-08-05T18:48:33.331Z,62.85
2022-08-05T18:52:03.353Z,62.87
2022-08-05T18:53:50.116Z,63.15
2022-08-05T18:56:16.947Z,62.86
2022-08-05T18:58:48.310Z,62.80
2022-08-05T19:01:17.845Z,63.13
2022-08-05T19:03:55.179Z,63.34
2022-08-05T19:06:37.066Z,63.03
2022-08-05T19:09:04.058Z,63.40
2022-08-05T19:11:59.356Z,64.05
2022-08-05T19:14:44.512Z,63.04
2022-08-05T19:17:03.491Z,63.24
2022-08-05T19:19:32.880Z,63.68
2022-08-05T19:22:00.467Z,63.50
2022-08-05T19:24:34.503Z,63.67
2022-08-05T19:27:03.934Z,62.89
2022-08-05T19:29:36.327Z,62.72
2022-08-05T19:32:04.416Z,63.01
2022-08-05T19:34:31.063Z,62.87
2022-08-05T19:36:57.707Z,63.75
2022-08-05T19:39:24.098Z,63.70
2022-08-05T19:42:07.158Z,63.52
2022-08-05T19:44:44.543Z,63.69
2022-08-05T19:47:11.691Z,64.04
2022-08-05T19:49:41.966Z,63.77
2022-08-05T19:52:30.718Z,63.44
2022-08-05T19:54:54.773Z,63.36
2022-08-05T19:57:48.998Z,63.54
2022-08-05T20:00:07.597Z,63.57
2022-08-05T20:02:35.841Z,63.29
2022-08-05T20:05:04.790Z,63.48
2022-08-05T20:07:38.992Z,63.04
2022-08-05T20:10:14.458Z,62.92
2022-08-05T20:12:47.646Z,62.85
2022-08-05T20:15:15.018Z,62.78
2022-08-05T20:18:01.556Z,62.78
2022-08-05T20:20:29.824Z,63.17
2022-08-05T20:22:56.331Z,63.20
2022-08-05T20:25:24.787Z,63.15
2022-08-05T20:28:00.245Z,63.01
2022-08-05T20:30:28.129Z,62.89
2022-08-05T20:32:54.410Z,63.27
2022-08-05T20:35:21.110Z,62.83
2022-08-05T20:38:06.670Z,62.52
2022-08-05T20:40:34.767Z,62.64
2022-08-05T20:43:01.237Z,62.86
2022-08-05T20:45:47.778Z,62.76
2022-08-05T20:48:16.552Z,62.80
2022-08-05T20:50:45.541Z,63.05
2022-08-05T20:53:16.358Z,62.52
2022-08-05T20:56:09.125Z,63.04
2022-08-05T20:58:36.089Z,62.25
2022-08-05T21:01:03.441Z,62.82
2022-08-05T21:03:30.455Z,62.23
2022-08-05T21:06:01.510Z,62.50
2022-08-05T21:08:36.005Z,62.43
2022-08-05T21:11:09.177Z,62.25
2022-08-05T21:13:55.682Z,62.42
2022-08-05T21:16:23.125Z,62.26
2022-08-05T21:18:56.590Z,62.44
2022-08-05T21:21:26.615Z,61.62
2022-08-05T21:24:06.373Z,62.31
2022-08-05T21:26:32.671Z,61.77
2022-08-05T21:29:03.524Z,62.01
2022-08-05T21:31:41.294Z,62.00
2022-08-05T21:34:08.192Z,61.77
2022-08-05T21:36:37.310Z,61.80
2022-08-05T21:39:03.764Z,61.95
2022-08-05T21:41:33.826Z,61.81
2022-08-05T21:44:03.790Z,61.78
2022-08-05T21:46:30.893Z,62.15
2022-08-05T21:48:57.325Z,61.67
2022-08-05T21:52:22.710Z,62.10
2022-08-05T21:54:12.891Z,61.71
2022-08-05T21:56:44.253Z,61.44
2022-08-05T21:59:22.506Z,61.93
2022-08-05T22:01:51.538Z,62.08
2022-08-05T22:04:25.516Z,61.47
2022-08-05T22:06:52.064Z,61.57
2022-08-05T22:09:21.071Z,61.63
2022-08-05T22:11:49.122Z,61.53
2022-08-05T22:14:33.491Z,61.65
2022-08-05T22:17:04.932Z,61.56
2022-08-05T22:20:00.302Z,61.27
2022-08-05T22:22:26.923Z,61.70
2022-08-05T22:24:55.905Z,61.31
2022-08-05T22:27:22.440Z,61.58
2022-08-05T22:29:49.311Z,61.75
2022-08-05T22:32:20.747Z,61.63
2022-08-05T22:34:49.342Z,61.44
2022-08-05T22:37:15.802Z,61.22
2022-08-05T22:39:42.347Z,61.05
2022-08-05T22:42:15.447Z,61.44
2022-08-05T22:44:56.986Z,61.41
2022-08-05T22:47:30.083Z,61.33
2022-08-05T22:50:20.521Z,61.42
2022-08-05T22:52:43.344Z,61.04
2022-08-05T22:55:19.092Z,60.98
2022-08-05T22:57:46.316Z,60.90
2022-08-05T23:00:12.713Z,60.92
2022-08-05T23:02:46.936Z,60.78
2022-08-05T23:05:13.984Z,60.69
2022-08-05T23:07:45.388Z,60.75
2022-08-05T23:10:15.476Z,60.58
2022-08-05T23:12:46.082Z,60.74
2022-08-05T23:15:12.573Z,60.62
2022-08-05T23:18:00.876Z,60.90
2022-08-05T23:20:25.716Z,60.22
2022-08-05T23:22:55.624Z,60.23
2022-08-05T23:25:52.145Z,60.74
2022-08-05T23:28:09.267Z,60.60
2022-08-05T23:30:39.831Z,60.19
2022-08-05T23:33:21.880Z,60.21
2022-08-05T23:35:48.998Z,60.02
2022-08-05T23:38:15.968Z,60.00
2022-08-05T23:40:50.216Z,59.97
2022-08-05T23:43:25.285Z,60.16
2022-08-05T23:46:03.182Z,59.99
2022-08-05T23:48:29.509Z,60.38
2022-08-05T23:50:55.892Z,60.33
2022-08-05T23:53:28.529Z,60.07
2022-08-05T23:56:11.238Z,60.03
2022-08-05T23:58:38.536Z,60.22
